Time;durP1;ratioP1;P1;durP2;ratioP2;P2;SDS_P1;SDS_P2;PMS_P1;PMS_P2;Temp;Humidity;BMP_temperature;BMP_pressure;BME280_temperature;BME280_humidity;BME280_pressure;Samples;Min_cycle;Max_cycle;Signal;HPM_P1;HPM_P2
2022/07/05 00:02:02;;;;;;;3.38;1.67;;;15.30;99.90;;;;;;5114511;28;20110;-69
2022/07/05 00:04:27;;;;;;;3.63;1.60;;;15.30;99.90;;;;;;5115411;28;20375;-69
2022/07/05 00:09:37;;;;;;;2.25;1.75;;;15.30;99.90;;;;;;5117767;27;20419;-69
2022/07/05 00:12:03;;;;;;;2.45;1.77;;;15.20;99.90;;;;;;5115267;28;20035;-69
2022/07/05 00:14:29;;;;;;;2.47;1.80;;;15.20;99.90;;;;;;5114612;28;20444;-69
2022/07/05 00:16:54;;;;;;;2.35;1.63;;;15.00;99.90;;;;;;5116249;28;20073;-69
2022/07/05 00:19:20;;;;;;;4.90;1.80;;;14.80;99.90;;;;;;5114836;28;20079;-69
2022/07/05 00:21:46;;;;;;;5.80;1.92;;;14.60;99.90;;;;;;5115474;28;20074;-69
2022/07/05 00:24:11;;;;;;;1.83;1.60;;;14.80;99.90;;;;;;5113562;28;20185;-69
2022/07/05 00:26:37;;;;;;;3.65;1.58;;;14.80;99.90;;;;;;5115593;28;20050;-69
2022/07/05 00:29:02;;;;;;;4.25;2.03;;;14.80;99.90;;;;;;5114402;28;20063;-69
2022/07/05 00:31:28;;;;;;;2.80;1.67;;;14.80;99.90;;;;;;5113905;28;20036;-69
2022/07/05 00:33:53;;;;;;;2.75;2.05;;;14.80;99.90;;;;;;5113836;28;20062;-69
2022/07/05 00:36:19;;;;;;;2.28;2.05;;;14.80;99.90;;;;;;5114132;28;20135;-69
2022/07/05 00:38:45;;;;;;;4.35;2.20;;;14.70;99.90;;;;;;5115847;28;20164;-70
2022/07/05 00:41:10;;;;;;;2.95;2.13;;;14.80;99.90;;;;;;5115581;28;20036;-69
2022/07/05 00:43:36;;;;;;;5.03;2.55;;;14.80;99.90;;;;;;5115424;28;20035;-69
2022/07/05 00:46:01;;;;;;;3.88;2.95;;;14.80;99.90;;;;;;5113950;28;20055;-69
2022/07/05 00:48:27;;;;;;;4.10;2.42;;;14.80;99.90;;;;;;5114647;28;20118;-69
2022/07/05 00:50:52;;;;;;;6.05;3.10;;;14.80;99.90;;;;;;5113899;28;20047;-69
2022/07/05 00:53:18;;;;;;;3.50;2.30;;;14.80;99.90;;;;;;5112501;28;20034;-69
2022/07/05 00:55:44;;;;;;;3.78;2.50;;;14.80;99.90;;;;;;5095748;28;20066;-69
2022/07/05 00:58:11;;;;;;;4.65;2.55;;;14.70;99.90;;;;;;5112595;28;20032;-69
2022/07/05 01:00:37;;;;;;;5.10;2.55;;;14.70;99.90;;;;;;5112849;28;20101;-69
2022/07/05 01:03:03;;;;;;;4.80;2.65;;;14.70;99.90;;;;;;5114063;28;20063;-69
2022/07/05 01:05:29;;;;;;;7.35;3.28;;;14.80;99.90;;;;;;5112960;28;20043;-68
2022/07/05 01:07:58;;;;;;;5.60;2.03;;;14.70;99.90;;;;;;5113098;28;20487;-69
2022/07/05 01:10:24;;;;;;;2.78;2.15;;;14.70;99.90;;;;;;5114172;28;20154;-68
2022/07/05 01:12:49;;;;;;;2.40;2.13;;;14.60;99.90;;;;;;5112678;28;20111;-68
2022/07/05 01:15:16;;;;;;;4.00;2.28;;;14.60;99.90;;;;;;5114179;28;20552;-68
2022/07/05 01:17:42;;;;;;;4.78;3.50;;;14.60;99.90;;;;;;5113647;28;20043;-68
2022/07/05 01:20:08;;;;;;;4.82;2.90;;;14.60;99.90;;;;;;5114700;28;20055;-68
2022/07/05 01:22:59;;;;;;;4.72;3.40;;;14.60;99.90;;;;;;5111982;28;20043;-68
2022/07/05 01:25:26;;;;;;;10.63;3.60;;;14.60;99.90;;;;;;5113312;28;20054;-68
2022/07/05 01:27:52;;;;;;;4.68;3.40;;;14.60;99.90;;;;;;5112944;28;20055;-69
2022/07/05 01:30:19;;;;;;;4.60;3.30;;;14.50;99.90;;;;;;5113973;28;20035;-68
2022/07/05 01:32:45;;;;;;;5.03;3.55;;;14.60;99.90;;;;;;5113510;28;20039;-70
2022/07/05 01:35:11;;;;;;;4.10;3.20;;;14.60;99.90;;;;;;5112275;28;20046;-69
2022/07/05 01:37:37;;;;;;;4.25;3.08;;;14.60;99.90;;;;;;5112971;28;20078;-69
2022/07/05 01:40:05;;;;;;;3.15;2.67;;;14.50;99.90;;;;;;5113794;28;20170;-69
2022/07/05 01:42:30;;;;;;;6.18;2.65;;;14.40;99.90;;;;;;5112427;28;20039;-69
2022/07/05 01:44:56;;;;;;;2.97;2.17;;;14.30;99.90;;;;;;5112639;28;20379;-68
2022/07/05 01:47:22;;;;;;;5.00;2.25;;;14.30;99.90;;;;;;5095587;28;20047;-68
2022/07/05 01:49:53;;;;;;;4.00;2.13;;;14.20;99.90;;;;;;5112564;28;20040;-69
2022/07/05 01:52:22;;;;;;;2.47;2.22;;;14.20;99.90;;;;;;5112474;28;20040;-69
2022/07/05 01:54:47;;;;;;;5.00;2.70;;;14.20;99.90;;;;;;5112606;28;20035;-69
2022/07/05 01:57:13;;;;;;;2.72;2.08;;;14.20;99.90;;;;;;5112864;28;20038;-69
2022/07/05 01:59:39;;;;;;;3.28;2.25;;;14.20;99.90;;;;;;5112088;28;20514;-69
2022/07/05 02:02:07;;;;;;;4.32;2.30;;;14.20;99.90;;;;;;5112628;28;20043;-69
2022/07/05 02:04:34;;;;;;;3.58;2.40;;;14.20;99.90;;;;;;5112474;28;20088;-69
2022/07/05 02:07:04;;;;;;;4.60;2.47;;;14.10;99.90;;;;;;5113478;28;20040;-69
2022/07/05 02:09:29;;;;;;;4.60;2.47;;;14.10;99.90;;;;;;5111162;28;20043;-69
2022/07/05 02:11:55;;;;;;;3.10;2.60;;;14.10;99.90;;;;;;5111440;28;20047;-69
2022/07/05 02:14:21;;;;;;;2.65;2.38;;;14.00;99.90;;;;;;5111666;28;20391;-69
2022/07/05 02:16:46;;;;;;;3.97;2.33;;;14.00;99.90;;;;;;5111976;28;20028;-69
2022/07/05 02:19:12;;;;;;;2.20;2.00;;;14.00;99.90;;;;;;5094999;28;20127;-69
2022/07/05 02:21:38;;;;;;;2.25;2.03;;;13.90;99.90;;;;;;5112194;28;20488;-69
2022/07/05 02:24:04;;;;;;;2.58;2.38;;;13.90;99.90;;;;;;5111758;28;20051;-69
2022/07/05 02:26:29;;;;;;;3.33;2.25;;;13.90;99.90;;;;;;5113379;28;20044;-69
2022/07/05 02:28:55;;;;;;;6.90;3.00;;;13.90;99.90;;;;;;5115121;28;20047;-69
2022/07/05 02:31:20;;;;;;;3.60;3.22;;;13.90;99.90;;;;;;5112774;28;20484;-69
2022/07/05 02:33:46;;;;;;;7.20;3.10;;;13.80;99.90;;;;;;5112426;28;20043;-69
2022/07/05 02:36:13;;;;;;;5.82;3.88;;;13.90;99.90;;;;;;5112087;28;20089;-69
2022/07/05 02:38:40;;;;;;;7.95;4.53;;;13.80;99.90;;;;;;5112108;28;20027;-70
2022/07/05 02:41:07;;;;;;;5.05;3.65;;;13.90;99.90;;;;;;5113830;28;20035;-69
2022/07/05 02:43:37;;;;;;;3.65;3.13;;;13.90;99.90;;;;;;5112367;28;20044;-70
2022/07/05 02:46:03;;;;;;;3.45;3.00;;;13.90;99.90;;;;;;5113747;28;20066;-69
2022/07/05 02:48:29;;;;;;;4.18;3.30;;;13.90;99.90;;;;;;5095973;28;20070;-69
2022/07/05 02:50:55;;;;;;;4.95;3.13;;;13.90;99.90;;;;;;5113719;28;20448;-69
2022/07/05 02:53:20;;;;;;;6.38;3.60;;;13.80;99.90;;;;;;5111999;28;20035;-70
2022/07/05 02:55:46;;;;;;;4.13;3.00;;;13.80;99.90;;;;;;5113851;28;20130;-70
2022/07/05 02:58:11;;;;;;;3.00;2.70;;;13.80;99.90;;;;;;5112906;28;20074;-70
2022/07/05 03:00:37;;;;;;;4.82;3.15;;;13.80;99.90;;;;;;5112052;28;20052;-68
2022/07/05 03:03:03;;;;;;;3.80;3.17;;;13.80;99.90;;;;;;5111900;28;20533;-68
2022/07/05 03:05:29;;;;;;;3.92;3.55;;;13.70;99.90;;;;;;5112373;28;20067;-68
2022/07/05 03:07:54;;;;;;;6.72;4.60;;;13.70;99.90;;;;;;5112745;28;20051;-68
2022/07/05 03:10:20;;;;;;;6.70;5.15;;;13.80;99.90;;;;;;5112688;28;20043;-68
2022/07/05 03:12:45;;;;;;;7.93;5.35;;;13.70;99.90;;;;;;5112932;28;20039;-68
2022/07/05 03:15:11;;;;;;;7.18;5.32;;;13.70;99.90;;;;;;5109862;28;20160;-69
2022/07/05 03:17:37;;;;;;;5.75;4.68;;;13.70;99.90;;;;;;5110571;28;20089;-68
2022/07/05 03:20:03;;;;;;;5.85;5.00;;;13.70;99.90;;;;;;5111080;28;20078;-69
2022/07/05 03:22:28;;;;;;;6.85;5.88;;;13.80;99.90;;;;;;5112390;28;20071;-68
2022/07/05 03:24:54;;;;;;;8.63;6.00;;;13.80;99.90;;;;;;5113110;28;20043;-68
2022/07/05 03:27:19;;;;;;;7.63;6.25;;;13.80;99.90;;;;;;5111773;28;20032;-69
2022/07/05 03:29:45;;;;;;;7.60;5.38;;;13.80;99.90;;;;;;5110658;28;20047;-68
2022/07/05 03:32:10;;;;;;;7.60;5.15;;;13.80;99.90;;;;;;5111728;28;20044;-69
2022/07/05 03:34:38;;;;;;;6.43;4.35;;;13.80;99.90;;;;;;5112160;28;20058;-68
2022/07/05 03:37:03;;;;;;;6.13;4.22;;;13.70;99.90;;;;;;5114701;28;20526;-69
2022/07/05 03:39:29;;;;;;;4.63;4.10;;;13.60;99.90;;;;;;5113599;28;20044;-70
2022/07/05 03:41:55;;;;;;;5.45;4.65;;;13.50;99.90;;;;;;5111975;28;20555;-70
2022/07/05 03:44:20;;;;;;;5.05;4.30;;;13.50;99.90;;;;;;5112233;28;20040;-70
2022/07/05 03:46:46;;;;;;;7.32;4.50;;;13.40;99.90;;;;;;5116627;28;20047;-70
2022/07/05 03:49:11;;;;;;;7.30;4.28;;;13.50;99.90;;;;;;5116581;28;20481;-70
2022/07/05 03:51:37;;;;;;;4.65;4.15;;;13.30;99.90;;;;;;5117671;28;20038;-70
2022/07/05 03:54:03;;;;;;;6.35;4.50;;;13.30;99.90;;;;;;5116212;28;20453;-69
2022/07/05 03:56:29;;;;;;;5.18;4.50;;;13.30;99.90;;;;;;5117401;28;20043;-69
2022/07/05 03:58:55;;;;;;;5.10;4.53;;;13.40;99.90;;;;;;5116216;28;20073;-69
2022/07/05 04:01:20;;;;;;;7.60;5.00;;;13.60;99.90;;;;;;5117239;28;20086;-70
2022/07/05 04:03:46;;;;;;;7.68;4.90;;;13.50;99.90;;;;;;5116489;28;20043;-70
2022/07/05 04:06:12;;;;;;;6.25;4.95;;;13.60;99.90;;;;;;5118146;28;20587;-69
2022/07/05 04:08:38;;;;;;;7.07;5.25;;;13.80;99.90;;;;;;5116763;28;20054;-70
2022/07/05 04:11:04;;;;;;;9.85;6.57;;;14.00;99.90;;;;;;5116229;28;20470;-70
2022/07/05 04:13:30;;;;;;;7.07;6.32;;;14.20;99.90;;;;;;5116049;28;20096;-70
2022/07/05 04:15:55;;;;;;;10.18;7.13;;;14.40;99.90;;;;;;5115760;28;20043;-69
2022/07/05 04:18:22;;;;;;;9.05;7.28;;;14.50;99.90;;;;;;5116517;28;20058;-70
2022/07/05 04:20:47;;;;;;;10.55;7.00;;;14.60;99.90;;;;;;5117133;28;20127;-69
2022/07/05 04:23:13;;;;;;;11.57;7.57;;;14.70;99.90;;;;;;5117338;28;20075;-69
2022/07/05 04:25:39;;;;;;;9.48;7.13;;;14.70;99.90;;;;;;5117547;28;20405;-69
2022/07/05 04:28:05;;;;;;;9.80;6.90;;;14.80;99.90;;;;;;5115882;28;20078;-70
2022/07/05 04:30:30;;;;;;;9.70;7.03;;;14.90;99.90;;;;;;5115658;28;20055;-69
2022/07/05 04:32:57;;;;;;;13.15;7.30;;;15.10;99.90;;;;;;5114738;28;20027;-70
2022/07/05 04:35:23;;;;;;;8.00;7.15;;;15.20;99.90;;;;;;5114907;28;20036;-70
2022/07/05 04:37:49;;;;;;;9.88;6.85;;;15.30;99.90;;;;;;5116890;28;20043;-70
2022/07/05 04:40:15;;;;;;;12.27;6.50;;;15.40;99.90;;;;;;5098923;28;20043;-70
2022/07/05 04:42:41;;;;;;;8.95;6.30;;;15.50;99.90;;;;;;5115767;28;20457;-70
2022/07/05 04:45:07;;;;;;;12.07;6.80;;;15.60;99.90;;;;;;5116118;28;20073;-70
2022/07/05 04:47:34;;;;;;;8.77;6.13;;;15.60;99.90;;;;;;5116522;28;20042;-70
2022/07/05 04:50:00;;;;;;;11.25;6.93;;;15.60;99.90;;;;;;5116404;28;20118;-70
2022/07/05 04:52:26;;;;;;;11.35;7.50;;;15.60;99.90;;;;;;5115780;28;20347;-70
2022/07/05 04:54:52;;;;;;;11.18;6.90;;;15.80;99.90;;;;;;5115308;28;20070;-70
2022/07/05 04:57:17;;;;;;;9.18;6.43;;;15.90;99.90;;;;;;5114479;28;20074;-70
2022/07/05 04:59:43;;;;;;;8.07;5.90;;;16.10;99.90;;;;;;5114963;28;20095;-70
2022/07/05 05:02:09;;;;;;;10.15;6.72;;;16.20;99.90;;;;;;5115503;28;20047;-70
2022/07/05 05:04:34;;;;;;;8.75;5.82;;;16.30;99.90;;;;;;5116126;28;20475;-70
2022/07/05 05:07:00;;;;;;;14.80;6.47;;;16.50;99.90;;;;;;5115364;28;20043;-70
2022/07/05 05:09:26;;;;;;;9.00;6.05;;;16.60;99.90;;;;;;5115689;28;20050;-70
2022/07/05 05:11:51;;;;;;;8.48;5.50;;;16.80;99.90;;;;;;5115557;28;20046;-70
2022/07/05 05:14:17;;;;;;;8.70;6.30;;;16.90;99.90;;;;;;5113965;28;20055;-70
2022/07/05 05:16:42;;;;;;;10.10;5.95;;;17.00;99.90;;;;;;5116405;28;20031;-70
2022/07/05 05:19:08;;;;;;;7.60;5.35;;;17.20;99.90;;;;;;5114752;28;20036;-69
2022/07/05 05:21:34;;;;;;;8.65;5.57;;;17.30;99.90;;;;;;5114296;28;20070;-70
2022/07/05 05:23:59;;;;;;;11.90;5.68;;;17.30;99.90;;;;;;5114940;28;20545;-69
2022/07/05 05:26:25;;;;;;;8.40;5.15;;;17.50;99.90;;;;;;5115855;28;20048;-69
2022/07/05 05:28:51;;;;;;;6.93;5.70;;;17.50;99.90;;;;;;5114375;28;20042;-69
2022/07/05 05:31:17;;;;;;;9.13;5.47;;;17.70;99.90;;;;;;5113702;28;20040;-69
2022/07/05 05:33:43;;;;;;;10.10;5.18;;;17.80;99.90;;;;;;5113673;28;20036;-69
2022/07/05 05:36:08;;;;;;;7.65;4.93;;;17.80;99.90;;;;;;5116025;28;20111;-69
2022/07/05 05:38:34;;;;;;;8.38;5.20;;;18.00;99.90;;;;;;5114831;28;20039;-69
2022/07/05 05:41:00;;;;;;;9.68;5.53;;;18.10;99.90;;;;;;5114016;28;20048;-69
2022/07/05 05:43:26;;;;;;;6.45;5.00;;;18.10;99.90;;;;;;5114747;28;20090;-68
2022/07/05 05:45:51;;;;;;;8.73;5.07;;;18.10;99.90;;;;;;5113843;28;20045;-69
2022/07/05 05:48:18;;;;;;;7.05;4.70;;;18.20;99.90;;;;;;5115016;28;20041;-68
2022/07/05 05:50:43;;;;;;;8.02;4.75;;;18.30;99.90;;;;;;5111806;28;20043;-69
2022/07/05 05:53:09;;;;;;;6.00;4.53;;;18.50;99.90;;;;;;5113336;28;20043;-69
2022/07/05 05:55:35;;;;;;;8.23;4.50;;;18.50;99.90;;;;;;5114074;28;20036;-69
2022/07/05 05:58:21;;;;;;;8.90;5.03;;;18.50;99.90;;;;;;5115407;28;20110;-68
2022/07/05 06:00:52;;;;;;;8.00;4.93;;;18.60;99.90;;;;;;5111338;28;20051;-68
2022/07/05 06:03:27;;;;;;;6.03;4.60;;;18.70;99.90;;;;;;5099495;28;20055;-69
2022/07/05 06:05:52;;;;;;;5.45;4.43;;;18.80;99.90;;;;;;5092023;28;20036;-69
2022/07/05 06:08:18;;;;;;;9.63;4.28;;;18.90;99.90;;;;;;5090754;28;20046;-68
2022/07/05 06:10:44;;;;;;;6.10;4.28;;;19.00;99.90;;;;;;5091656;28;20043;-69
2022/07/05 06:13:12;;;;;;;5.13;4.18;;;19.10;99.90;;;;;;5091983;28;20028;-69
2022/07/05 06:15:39;;;;;;;9.52;4.40;;;19.10;99.90;;;;;;5092407;28;20404;-69
2022/07/05 06:18:06;;;;;;;6.72;4.72;;;19.10;99.90;;;;;;5090842;28;20032;-69
2022/07/05 06:20:33;;;;;;;7.30;4.13;;;19.10;99.90;;;;;;5091016;28;20063;-68
2022/07/05 06:23:00;;;;;;;7.82;3.88;;;19.20;99.90;;;;;;5091856;28;20105;-69
2022/07/05 06:25:26;;;;;;;7.32;4.10;;;19.30;99.90;;;;;;5090402;28;20032;-69
2022/07/05 06:27:59;;;;;;;7.35;4.15;;;19.40;99.90;;;;;;5090758;28;20046;-68
2022/07/05 06:30:27;;;;;;;5.82;4.03;;;19.40;99.90;;;;;;5090721;28;20083;-69
2022/07/05 06:32:53;;;;;;;7.93;4.07;;;19.50;99.90;;;;;;5090041;28;20120;-69
2022/07/05 06:35:20;;;;;;;4.95;3.65;;;19.50;99.90;;;;;;5089909;28;20123;-69
2022/07/05 06:37:54;;;;;;;6.43;3.53;;;19.50;99.90;;;;;;5090597;28;20453;-69
2022/07/05 06:40:27;;;;;;;5.82;3.72;;;19.50;99.90;;;;;;5089632;28;20056;-69
2022/07/05 06:42:55;;;;;;;5.15;4.65;;;19.70;99.90;;;;;;5089295;28;20047;-70
2022/07/05 06:45:20;;;;;;;6.75;3.42;;;19.80;99.90;;;;;;5088588;28;20046;-70
2022/07/05 06:47:57;;;;;;;8.20;3.25;;;20.00;99.90;;;;;;5089735;28;20039;-70
2022/07/05 06:50:23;;;;;;;7.88;3.28;;;19.90;99.90;;;;;;5090788;28;20395;-70
2022/07/05 06:52:49;;;;;;;2.88;1.90;;;19.90;99.90;;;;;;5090558;28;20050;-71
2022/07/05 06:55:14;;;;;;;5.65;2.10;;;20.00;99.90;;;;;;5090072;28;20446;-71
2022/07/05 06:57:40;;;;;;;5.10;2.90;;;20.00;99.90;;;;;;5092663;28;20075;-70
2022/07/05 07:00:06;;;;;;;6.60;2.30;;;19.60;99.90;;;;;;5090432;28;20040;-69
2022/07/05 07:02:32;;;;;;;8.35;2.10;;;19.70;99.90;;;;;;5089569;28;20044;-69
2022/07/05 07:04:57;;;;;;;9.63;2.00;;;19.90;99.90;;;;;;5090013;28;20399;-69
2022/07/05 07:10:07;;;;;;;6.85;2.13;;;20.20;99.90;;;;;;5089952;28;20476;-70
2022/07/05 07:12:33;;;;;;;5.10;2.17;;;20.20;99.90;;;;;;5088565;28;20111;-70
2022/07/05 07:14:58;;;;;;;4.63;1.95;;;20.40;99.90;;;;;;5090313;28;20135;-70
2022/07/05 07:17:24;;;;;;;4.03;2.00;;;20.50;99.90;;;;;;5090355;28;20043;-69
2022/07/05 07:19:50;;;;;;;5.15;1.77;;;20.60;99.90;;;;;;5091043;28;20474;-68
2022/07/05 07:22:16;;;;;;;4.72;1.38;;;20.60;99.90;;;;;;5114431;28;20461;-68
2022/07/05 07:24:42;;;;;;;6.05;1.50;;;20.80;99.90;;;;;;5114467;28;20036;-68
2022/07/05 07:27:08;;;;;;;7.00;1.90;;;20.90;99.90;;;;;;5114593;28;20036;-68
2022/07/05 07:29:36;;;;;;;3.92;1.83;;;21.00;99.90;;;;;;5113111;28;20487;-68
2022/07/05 07:32:04;;;;;;;10.90;2.30;;;21.00;99.90;;;;;;5112912;28;20044;-68
2022/07/05 07:34:30;;;;;;;7.05;1.60;;;21.00;99.90;;;;;;5114221;27;20089;-68
2022/07/05 07:36:56;;;;;;;5.93;1.60;;;21.20;99.90;;;;;;5112960;28;20047;-69
2022/07/05 07:39:23;;;;;;;4.80;1.45;;;21.20;99.90;;;;;;5114354;28;20079;-69
2022/07/05 07:41:49;;;;;;;3.65;1.25;;;21.10;99.90;;;;;;5114466;28;20125;-69
2022/07/05 07:44:14;;;;;;;4.47;1.20;;;21.10;99.90;;;;;;5114078;28;20399;-69
2022/07/05 07:46:40;;;;;;;8.50;1.60;;;21.10;99.90;;;;;;5112886;28;20041;-70
2022/07/05 07:49:07;;;;;;;4.05;1.17;;;21.10;99.90;;;;;;5112893;28;20123;-70
2022/07/05 07:51:33;;;;;;;2.83;1.27;;;21.10;99.90;;;;;;5112753;28;20040;-69
2022/07/05 07:53:59;;;;;;;4.65;1.40;;;21.20;99.90;;;;;;5114108;28;20376;-69
2022/07/05 07:56:25;;;;;;;5.45;1.30;;;21.10;99.90;;;;;;5112752;28;20047;-69
2022/07/05 07:58:50;;;;;;;6.05;1.42;;;21.20;99.90;;;;;;5114117;28;20043;-70
2022/07/05 08:01:16;;;;;;;1.85;0.93;;;21.20;99.90;;;;;;5112588;28;20088;-69
2022/07/05 08:03:42;;;;;;;5.50;1.20;;;21.10;99.90;;;;;;5113599;28;20475;-69
2022/07/05 08:06:08;;;;;;;3.22;0.90;;;21.10;99.90;;;;;;5113940;28;20031;-70
2022/07/05 08:08:34;;;;;;;7.05;1.30;;;20.90;99.90;;;;;;5112424;28;20032;-70
2022/07/05 08:11:00;;;;;;;1.17;1.00;;;20.90;99.90;;;;;;5112670;28;20130;-70
2022/07/05 08:13:26;;;;;;;6.25;1.23;;;20.70;99.90;;;;;;5112216;28;20527;-70
2022/07/05 08:15:52;;;;;;;3.60;1.30;;;20.90;99.90;;;;;;5114946;28;20035;-70
2022/07/05 08:23:46;;;;;;;2.53;0.95;;;21.10;99.90;;;;;;5113266;28;20126;-70
2022/07/05 08:26:11;;;;;;;2.22;0.90;;;21.30;99.90;;;;;;5112451;28;20075;-70
2022/07/05 08:28:37;;;;;;;4.75;0.90;;;21.20;99.90;;;;;;5112560;28;20093;-70
2022/07/05 08:31:02;;;;;;;4.85;0.98;;;21.50;99.90;;;;;;5111364;28;20032;-70
2022/07/05 08:33:28;;;;;;;1.63;0.68;;;21.50;99.90;;;;;;5111311;28;20042;-70
2022/07/05 08:35:54;;;;;;;2.60;0.75;;;21.20;99.90;;;;;;5111855;28;20627;-70
2022/07/05 08:38:19;;;;;;;3.47;0.90;;;21.40;99.90;;;;;;5112260;28;20115;-70
2022/07/05 08:40:50;;;;;;;4.20;0.73;;;21.30;99.90;;;;;;5111928;28;20039;-70
2022/07/05 08:43:16;;;;;;;5.63;1.10;;;21.10;99.90;;;;;;5111608;28;20035;-70
2022/07/05 08:45:45;;;;;;;5.25;1.17;;;21.10;99.90;;;;;;5111788;28;20079;-70
2022/07/05 08:48:12;;;;;;;2.25;1.02;;;21.20;99.90;;;;;;5112126;28;20367;-70
2022/07/05 08:50:40;;;;;;;3.47;0.98;;;21.40;99.90;;;;;;5113017;28;20387;-69
2022/07/05 08:53:06;;;;;;;2.53;0.75;;;21.60;99.90;;;;;;5111336;28;20035;-69
2022/07/05 08:55:34;;;;;;;3.35;0.90;;;21.60;99.90;;;;;;5111784;28;20126;-69
2022/07/05 08:58:01;;;;;;;4.10;0.88;;;21.50;99.90;;;;;;5111706;28;20074;-71
2022/07/05 09:00:26;;;;;;;3.20;1.05;;;21.40;99.90;;;;;;5112892;28;20044;-70
2022/07/05 09:02:53;;;;;;;4.20;1.00;;;21.30;99.90;;;;;;5112432;28;20046;-71
2022/07/05 09:05:22;;;;;;;3.90;0.90;;;21.20;99.90;;;;;;5112760;28;20040;-71
2022/07/05 09:07:59;;;;;;;5.47;1.30;;;21.10;99.90;;;;;;5112675;28;20042;-69
2022/07/05 09:10:30;;;;;;;3.47;0.90;;;21.10;99.90;;;;;;5111246;28;20043;-69
2022/07/05 09:12:57;;;;;;;3.47;1.10;;;21.10;99.90;;;;;;5110888;28;20122;-70
2022/07/05 09:15:23;;;;;;;3.83;0.95;;;21.10;99.90;;;;;;5111362;28;20099;-68
2022/07/05 09:17:49;;;;;;;1.95;0.93;;;21.30;99.90;;;;;;5112800;28;20050;-69
2022/07/05 09:20:17;;;;;;;7.05;1.20;;;21.50;99.90;;;;;;5111136;28;20039;-68
2022/07/05 09:22:48;;;;;;;1.58;0.90;;;21.50;99.90;;;;;;5111037;28;20046;-68
2022/07/05 09:25:15;;;;;;;3.15;0.90;;;21.60;99.90;;;;;;5111228;28;20088;-69
2022/07/05 09:27:57;;;;;;;2.85;1.13;;;21.50;99.90;;;;;;5112598;28;20499;-69
2022/07/05 09:30:41;;;;;;;3.25;0.90;;;21.70;99.90;;;;;;5112935;28;20052;-69
2022/07/05 09:33:08;;;;;;;3.63;0.93;;;21.70;99.90;;;;;;5111993;28;20178;-70
2022/07/05 09:35:50;;;;;;;3.33;0.82;;;21.70;99.90;;;;;;5110983;28;20047;-69
2022/07/05 09:38:19;;;;;;;4.00;1.00;;;21.90;99.90;;;;;;5110727;28;20039;-69
2022/07/05 09:40:48;;;;;;;2.75;0.90;;;21.80;99.90;;;;;;5110740;28;20043;-69
2022/07/05 09:49:25;;;;;;;1.73;0.93;;;21.80;99.90;;;;;;5111650;28;20074;-69
2022/07/05 09:55:32;;;;;;;3.10;1.10;;;22.00;99.90;;;;;;5111741;27;20773;-69
2022/07/05 09:58:24;;;;;;;;;;;21.90;99.90;;;;;;5112364;28;20439;-69
2022/07/05 10:05:08;;;;;;;2.20;1.10;;;21.50;99.90;;;;;;5110033;28;20064;-69
2022/07/05 10:07:36;;;;;;;4.20;1.00;;;21.60;99.90;;;;;;5111569;28;20317;-69
2022/07/05 10:10:40;;;;;;;4.20;0.70;;;21.60;99.90;;;;;;5111671;28;20106;-69
2022/07/05 10:16:59;;;;;;;2.78;1.00;;;22.10;99.90;;;;;;5109956;28;20052;-70
2022/07/05 10:19:28;;;;;;;;;;;22.30;99.90;;;;;;5110695;28;20044;-70
2022/07/05 10:21:54;;;;;;;6.45;1.10;;;22.30;99.90;;;;;;5110266;28;20279;-70
2022/07/05 10:24:20;;;;;;;3.35;0.90;;;22.40;99.90;;;;;;5110114;28;20069;-70
2022/07/05 10:26:47;;;;;;;2.22;1.10;;;22.30;99.90;;;;;;5110134;28;20047;-70
2022/07/05 10:29:14;;;;;;;3.40;1.05;;;22.30;99.90;;;;;;5111465;28;20036;-70
2022/07/05 10:31:40;;;;;;;3.10;0.95;;;22.00;99.90;;;;;;5110103;28;20046;-70
2022/07/05 10:34:09;;;;;;;3.40;0.93;;;22.10;99.90;;;;;;5111464;28;20028;-70
2022/07/05 10:36:35;;;;;;;9.50;1.10;;;22.10;99.90;;;;;;5112076;28;20599;-70
2022/07/05 10:39:02;;;;;;;4.07;1.30;;;22.00;99.90;;;;;;5110090;28;20114;-70
2022/07/05 10:41:29;;;;;;;6.25;0.90;;;22.10;99.90;;;;;;5110312;28;20039;-70
2022/07/05 10:43:58;;;;;;;4.72;1.02;;;22.30;99.90;;;;;;5110093;28;20141;-70
2022/07/05 10:46:34;;;;;;;5.57;1.10;;;22.40;99.90;;;;;;5109957;28;20032;-70
2022/07/05 10:49:11;;;;;;;4.20;0.82;;;22.20;99.90;;;;;;5109739;28;20031;-71
2022/07/05 10:51:36;;;;;;;6.45;1.05;;;22.10;99.90;;;;;;5110084;28;20040;-70
2022/07/05 10:54:03;;;;;;;2.60;0.82;;;22.30;99.90;;;;;;5109315;28;20040;-70
2022/07/05 10:56:28;;;;;;;4.68;1.20;;;22.20;99.90;;;;;;5110024;28;20126;-70
2022/07/05 10:59:09;;;;;;;5.20;1.10;;;22.40;99.90;;;;;;5110003;28;20142;-70
2022/07/05 11:01:36;;;;;;;8.05;1.45;;;22.50;99.90;;;;;;5110000;28;20150;-70
2022/07/05 11:04:02;;;;;;;3.33;0.93;;;22.40;99.90;;;;;;5109531;28;20039;-70
2022/07/05 11:06:29;;;;;;;5.20;1.10;;;22.50;99.90;;;;;;5109743;28;20042;-70
2022/07/05 11:08:57;;;;;;;3.33;1.13;;;22.40;99.90;;;;;;5109997;28;20395;-70
2022/07/05 11:11:25;;;;;;;5.90;1.10;;;22.50;99.90;;;;;;5109624;28;20071;-70
2022/07/05 11:13:53;;;;;;;3.95;1.10;;;22.50;99.90;;;;;;5109338;28;20043;-70
2022/07/05 11:16:24;;;;;;;3.40;0.98;;;22.10;99.90;;;;;;5109642;28;20044;-70
2022/07/05 11:19:08;;;;;;;4.43;1.00;;;22.00;99.90;;;;;;5110117;28;20544;-70
2022/07/05 11:21:35;;;;;;;6.25;0.90;;;22.00;99.90;;;;;;5109718;28;20042;-70
2022/07/05 11:24:21;;;;;;;2.33;0.82;;;21.90;99.90;;;;;;5110794;28;20324;-70
2022/07/05 11:26:53;;;;;;;3.28;1.20;;;22.00;99.90;;;;;;5110005;28;20403;-70
2022/07/05 11:29:49;;;;;;;3.38;0.75;;;22.00;99.90;;;;;;5109818;28;20040;-70
2022/07/05 11:32:28;;;;;;;5.63;1.40;;;21.90;99.90;;;;;;5109676;28;20047;-70
2022/07/05 11:34:56;;;;;;;4.80;1.27;;;21.90;99.90;;;;;;5109685;28;20039;-70
2022/07/05 11:37:32;;;;;;;6.82;1.27;;;22.10;99.90;;;;;;5111092;28;20040;-70
2022/07/05 11:40:17;;;;;;;6.60;1.30;;;22.10;99.90;;;;;;5109532;28;20039;-70
2022/07/05 11:42:47;;;;;;;4.18;1.00;;;22.20;99.90;;;;;;5099038;28;20056;-70
2022/07/05 11:45:13;;;;;;;3.17;1.08;;;22.30;99.90;;;;;;5112745;28;20050;-71
2022/07/05 11:47:39;;;;;;;4.70;1.00;;;22.50;99.90;;;;;;5109145;28;20340;-71
2022/07/05 11:50:05;;;;;;;5.88;1.40;;;22.40;99.90;;;;;;5109230;28;20054;-71
2022/07/05 11:52:32;;;;;;;3.90;1.08;;;22.40;99.90;;;;;;5108618;28;20056;-69
2022/07/05 11:55:00;;;;;;;3.33;0.77;;;22.50;99.90;;;;;;5108801;28;20067;-69
2022/07/05 11:57:26;;;;;;;3.45;1.02;;;22.60;99.90;;;;;;5108770;28;20035;-69
2022/07/05 11:59:52;;;;;;;3.22;1.13;;;22.60;99.90;;;;;;5108999;28;20036;-69
2022/07/05 12:02:18;;;;;;;7.30;1.33;;;22.60;99.90;;;;;;5110045;28;20176;-69
2022/07/05 12:04:48;;;;;;;3.03;1.05;;;22.50;99.90;;;;;;5110861;28;20031;-70
2022/07/05 12:07:31;;;;;;;2.65;1.00;;;22.30;99.90;;;;;;5113159;28;20123;-69
2022/07/05 12:12:44;;;;;;;5.22;1.48;;;22.40;99.90;;;;;;5113551;28;20047;-70
2022/07/05 12:15:18;;;;;;;1.58;0.60;;;22.50;99.60;;;;;;5113832;28;20495;-70
2022/07/05 12:17:49;;;;;;;4.28;0.98;;;22.30;99.80;;;;;;5113648;28;20183;-70
2022/07/05 12:20:20;;;;;;;2.85;1.00;;;22.50;99.50;;;;;;5113671;28;20088;-70
2022/07/05 12:22:46;;;;;;;3.55;0.95;;;22.70;99.20;;;;;;5112101;28;20046;-69
2022/07/05 12:25:20;;;;;;;1.33;0.85;;;22.60;99.60;;;;;;5113733;28;20047;-70
2022/07/05 12:27:48;;;;;;;2.65;0.80;;;22.60;99.60;;;;;;5115324;28;20044;-69
2022/07/05 12:30:15;;;;;;;2.72;1.17;;;22.50;99.10;;;;;;5113275;28;20054;-69
2022/07/05 12:33:03;;;;;;;3.58;0.90;;;22.70;99.30;;;;;;5113006;28;20036;-69
2022/07/05 12:35:31;;;;;;;3.88;0.90;;;22.90;98.10;;;;;;5113197;28;20040;-69
2022/07/05 12:38:08;;;;;;;2.00;0.90;;;22.90;98.40;;;;;;5111901;28;20043;-69
2022/07/05 12:40:35;;;;;;;3.85;0.95;;;23.10;97.40;;;;;;5113241;28;20760;-68
2022/07/05 12:43:05;;;;;;;6.03;0.90;;;22.80;98.10;;;;;;5113446;28;20062;-69
2022/07/05 12:45:31;;;;;;;2.80;0.80;;;22.70;98.00;;;;;;5112814;28;20403;-70
2022/07/05 12:48:00;;;;;;;3.20;0.60;;;23.00;97.90;;;;;;5113273;28;20042;-69
2022/07/05 12:50:31;;;;;;;2.47;0.90;;;23.00;97.80;;;;;;5113163;28;20042;-69
2022/07/05 12:58:57;;;;;;;3.80;0.80;;;23.30;97.00;;;;;;5111890;28;20047;-69
2022/07/05 13:01:31;;;;;;;5.50;0.70;;;23.10;97.00;;;;;;5111366;28;20118;-69
2022/07/05 13:04:09;;;;;;;2.83;0.68;;;22.90;96.70;;;;;;5112442;28;20032;-70
2022/07/05 13:06:50;;;;;;;3.88;0.80;;;22.90;96.70;;;;;;5112907;28;20036;-70
2022/07/05 13:09:32;;;;;;;3.47;0.65;;;23.00;95.10;;;;;;5112653;28;20047;-69
2022/07/05 13:12:16;;;;;;;3.70;0.73;;;23.00;95.50;;;;;;5111160;28;20044;-69
2022/07/05 13:14:47;;;;;;;1.95;0.50;;;22.90;95.60;;;;;;5112393;27;20474;-70
2022/07/05 13:17:14;;;;;;;4.57;1.10;;;23.10;95.40;;;;;;5111933;28;20031;-69
2022/07/05 13:19:42;;;;;;;5.47;0.70;;;23.20;95.30;;;;;;5112508;28;20047;-69
2022/07/05 13:22:07;;;;;;;2.80;0.60;;;23.20;94.50;;;;;;5112309;28;20046;-69
2022/07/05 13:24:33;;;;;;;7.75;0.80;;;23.10;95.10;;;;;;5110878;28;20043;-69
2022/07/05 13:27:00;;;;;;;1.70;0.50;;;23.00;95.40;;;;;;5111046;28;20510;-69
2022/07/05 13:29:26;;;;;;;2.95;0.50;;;23.40;94.80;;;;;;5112292;28;20114;-70